Time;durP1;ratioP1;P1;durP2;ratioP2;P2;SDS_P1;SDS_P2;PMS_P1;PMS_P2;Temp;Humidity;BMP_temperature;BMP_pressure;BME280_temperature;BME280_humidity;BME280_pressure;Samples;Min_cycle;Max_cycle;Signal;HPM_P1;HPM_P2
2023/11/02 00:02:02;;;;;;;1.90;0.73;;;;;;;11.26;60.83;97983.59;10481163;28;20060;-64
2023/11/02 00:07:04;;;;;;;1.02;0.70;;;;;;;11.12;60.81;97978.81;10483921;28;20041;-64
2023/11/02 00:12:19;;;;;;;1.00;0.90;;;;;;;11.06;61.00;97976.75;10479439;28;20072;-64
2023/11/02 00:17:36;;;;;;;1.13;1.00;;;;;;;11.08;60.90;97965.19;10480508;28;20160;-64
2023/11/02 00:22:44;;;;;;;2.72;0.70;;;;;;;10.98;60.97;97966.97;10485724;28;20040;-64
2023/11/02 00:27:46;;;;;;;0.85;0.70;;;;;;;11.09;61.10;97947.72;10489124;28;20128;-64
2023/11/02 00:32:48;;;;;;;0.75;0.52;;;;;;;11.15;60.84;97940.09;10493821;27;20393;-64
2023/11/02 00:37:50;;;;;;;3.10;1.05;;;;;;;11.19;60.90;97930.19;10471191;28;20106;-64
2023/11/02 00:42:53;;;;;;;0.50;0.50;;;;;;;11.25;60.81;97930.41;10484926;28;20487;-65
2023/11/02 00:47:55;;;;;;;2.33;0.85;;;;;;;11.39;60.38;97910.81;10497649;28;20503;-64
2023/11/02 00:52:57;;;;;;;0.65;0.60;;;;;;;11.45;60.27;97907.63;10464268;28;20057;-64
2023/11/02 00:58:07;;;;;;;1.58;0.65;;;;;;;11.56;60.28;97898.75;10478999;28;20051;-64
2023/11/02 01:03:09;;;;;;;1.80;0.80;;;;;;;11.48;60.50;97894.22;10463261;28;20044;-65
2023/11/02 01:08:13;;;;;;;1.70;0.80;;;;;;;11.38;60.88;97862.03;10443864;28;20045;-64
2023/11/02 01:13:17;;;;;;;1.92;1.05;;;;;;;11.33;61.12;97848.59;10460303;28;20492;-64
2023/11/02 01:18:20;;;;;;;1.00;0.73;;;;;;;11.32;61.05;97827.81;10481737;28;20125;-64
2023/11/02 01:23:22;;;;;;;0.60;0.60;;;;;;;11.34;61.17;97810.16;10479052;28;20044;-64
2023/11/02 01:28:44;;;;;;;1.25;0.82;;;;;;;11.22;61.54;97812.97;10480347;28;20161;-64
2023/11/02 01:33:59;;;;;;;1.42;0.88;;;;;;;11.18;61.84;97793.31;10480407;28;20071;-64
2023/11/02 01:39:09;;;;;;;0.75;0.68;;;;;;;11.23;61.39;97764.91;10479310;28;20135;-64
2023/11/02 01:44:20;;;;;;;2.28;1.13;;;;;;;11.04;61.58;97751.97;10478198;28;20037;-64
2023/11/02 01:49:48;;;;;;;1.08;0.90;;;;;;;10.87;61.85;97733.56;10459176;28;20032;-64
2023/11/02 01:55:08;;;;;;;1.35;0.95;;;;;;;10.71;62.28;97704.63;10459200;28;20552;-64
2023/11/02 02:00:16;;;;;;;1.57;0.93;;;;;;;10.60;62.36;97686.53;10476519;28;20036;-64
2023/11/02 02:05:29;;;;;;;1.50;1.00;;;;;;;10.59;62.49;97666.59;10462845;28;20127;-64
2023/11/02 02:10:56;;;;;;;1.05;0.63;;;;;;;10.52;62.52;97646.28;10491319;28;20046;-65
2023/11/02 02:16:08;;;;;;;0.70;0.70;;;;;;;10.51;62.58;97646.44;10493391;28;20488;-64
2023/11/02 02:21:30;;;;;;;0.63;0.60;;;;;;;10.54;62.44;97620.00;10476711;28;20058;-65
2023/11/02 02:26:51;;;;;;;2.08;0.85;;;;;;;10.52;62.40;97608.88;10459276;28;20048;-64
2023/11/02 02:32:12;;;;;;;0.57;0.57;;;;;;;10.48;62.46;97600.50;10480529;28;20053;-64
2023/11/02 02:37:20;;;;;;;2.47;0.90;;;;;;;10.54;62.23;97599.09;10477388;28;20558;-64
2023/11/02 02:42:23;;;;;;;1.10;0.70;;;;;;;10.61;62.37;97600.13;10474906;28;20235;-64
2023/11/02 02:47:26;;;;;;;2.75;0.77;;;;;;;10.72;62.36;97606.94;10474912;28;20048;-65
2023/11/02 02:52:29;;;;;;;3.47;1.00;;;;;;;10.64;62.36;97597.25;10483168;28;20651;-64
2023/11/02 02:57:35;;;;;;;2.25;0.60;;;;;;;10.72;62.13;97588.66;10484805;28;20050;-64
2023/11/02 03:02:40;;;;;;;6.78;1.73;;;;;;;10.70;61.89;97573.13;10491138;28;20459;-64
2023/11/02 03:07:46;;;;;;;0.65;0.60;;;;;;;10.71;61.55;97551.22;10488421;28;20128;-65
2023/11/02 03:12:50;;;;;;;1.00;0.82;;;;;;;10.65;61.55;97553.59;10488440;28;20044;-65
2023/11/02 03:18:12;;;;;;;1.52;0.93;;;;;;;10.65;61.28;97549.22;10485826;28;20056;-65
2023/11/02 03:23:15;;;;;;;0.80;0.80;;;;;;;10.72;61.11;97555.50;10484322;28;20547;-65
2023/11/02 03:28:22;;;;;;;3.67;1.25;;;;;;;10.65;61.62;97541.38;10500452;27;20040;-64
2023/11/02 03:33:34;;;;;;;1.63;1.00;;;;;;;10.53;61.67;97524.28;10491476;28;20576;-66
2023/11/02 03:38:55;;;;;;;2.85;0.85;;;;;;;10.62;61.60;97510.31;10477354;28;20048;-65
2023/11/02 03:44:14;;;;;;;1.40;0.80;;;;;;;10.53;61.63;97482.44;10481822;28;20052;-65
2023/11/02 03:49:57;;;;;;;0.82;0.77;;;;;;;10.50;61.44;97474.94;10481894;28;20123;-65
2023/11/02 03:55:31;;;;;;;0.82;0.75;;;;;;;10.40;61.13;97451.47;10481844;28;20411;-65
2023/11/02 04:00:45;;;;;;;1.50;0.80;;;;;;;10.46;61.23;97437.00;10466353;28;20041;-65
2023/11/02 04:05:55;;;;;;;2.85;0.82;;;;;;;10.40;61.31;97411.47;10467688;28;20051;-65
2023/11/02 04:11:18;;;;;;;1.00;0.90;;;;;;;10.36;60.92;97408.34;10492381;28;20052;-65
2023/11/02 04:16:20;;;;;;;3.97;0.70;;;;;;;10.33;61.15;97397.38;10480547;28;20488;-65
2023/11/02 04:21:22;;;;;;;2.80;0.88;;;;;;;10.33;61.19;97400.81;10481905;28;20055;-64
2023/11/02 04:26:24;;;;;;;1.10;0.77;;;;;;;10.35;61.01;97392.81;10479465;28;21218;-64
2023/11/02 04:31:26;;;;;;;2.13;0.70;;;;;;;10.42;60.96;97372.94;10482662;28;20048;-64
2023/11/02 04:36:28;;;;;;;1.25;0.85;;;;;;;10.45;60.69;97365.63;10479394;28;20051;-64
2023/11/02 04:41:30;;;;;;;1.30;0.88;;;;;;;10.30;60.99;97361.91;10479933;28;20052;-64
2023/11/02 04:46:32;;;;;;;2.70;1.17;;;;;;;10.31;61.59;97328.78;10479860;28;20427;-64
2023/11/02 04:51:34;;;;;;;1.92;0.80;;;;;;;10.27;61.89;97332.69;10490294;28;20134;-64
2023/11/02 04:56:36;;;;;;;0.82;0.65;;;;;;;10.22;62.00;97311.41;10460697;28;20045;-63
2023/11/02 05:01:39;;;;;;;0.85;0.63;;;;;;;10.14;62.42;97290.44;10466823;28;20976;-63
2023/11/02 05:06:42;;;;;;;0.85;0.70;;;;;;;10.19;62.65;97278.59;10477608;28;20044;-64
2023/11/02 05:11:46;;;;;;;0.95;0.57;;;;;;;10.07;63.30;97247.66;10487583;28;20056;-63
2023/11/02 05:16:48;;;;;;;0.63;0.63;;;;;;;9.82;63.76;97230.19;10483356;28;20063;-64
2023/11/02 05:21:50;;;;;;;1.05;0.70;;;;;;;9.72;64.72;97216.41;10479033;28;20490;-63
2023/11/02 05:26:52;;;;;;;1.35;0.85;;;;;;;9.70;64.34;97190.47;10481876;28;20049;-63
2023/11/02 05:31:54;;;;;;;1.33;0.80;;;;;;;9.72;64.39;97180.69;10482807;28;20084;-63
2023/11/02 05:36:56;;;;;;;0.55;0.55;;;;;;;9.66;64.70;97155.22;10476732;28;20045;-64
2023/11/02 05:41:58;;;;;;;0.85;0.65;;;;;;;9.61;64.94;97139.16;10476797;28;20524;-64
2023/11/02 05:47:00;;;;;;;1.48;1.02;;;;;;;9.59;65.15;97135.88;10480225;28;20044;-64
2023/11/02 05:52:03;;;;;;;1.10;0.70;;;;;;;9.59;64.95;97138.47;10476418;28;21012;-63
2023/11/02 05:57:05;;;;;;;1.95;0.85;;;;;;;9.54;65.24;97141.53;10459786;28;20139;-63
2023/11/02 06:02:08;;;;;;;0.98;0.80;;;;;;;9.51;65.94;97134.03;10479932;28;20044;-65
2023/11/02 06:07:10;;;;;;;0.77;0.77;;;;;;;9.62;65.65;97140.81;10463649;28;20127;-64
2023/11/02 06:12:13;;;;;;;0.40;0.40;;;;;;;9.65;65.29;97063.03;10465586;28;20045;-64
2023/11/02 06:17:15;;;;;;;2.08;1.05;;;;;;;9.41;66.01;96960.34;10480040;28;20572;-65
2023/11/02 06:22:18;;;;;;;1.52;0.80;;;;;;;9.01;67.49;96940.09;10479532;28;20045;-66
2023/11/02 06:27:20;;;;;;;0.70;0.65;;;;;;;8.88;67.89;96937.06;10474628;28;20947;-66
2023/11/02 06:32:22;;;;;;;1.75;0.80;;;;;;;8.91;69.09;97077.53;10483052;28;20063;-65
2023/11/02 06:37:25;;;;;;;9.57;2.05;;;;;;;9.14;67.64;97067.41;10465707;28;20182;-65
2023/11/02 06:42:27;;;;;;;1.75;1.10;;;;;;;9.19;67.25;96992.16;10483882;28;20048;-66
2023/11/02 06:47:29;;;;;;;0.80;0.80;;;;;;;9.15;67.79;96955.16;10482800;28;20053;-66
2023/11/02 06:52:31;;;;;;;1.30;0.85;;;;;;;9.21;67.52;96936.28;10480811;28;20467;-65
2023/11/02 06:57:33;;;;;;;3.30;1.15;;;;;;;9.19;67.77;96925.22;10483037;28;20052;-65
2023/11/02 07:02:36;;;;;;;1.85;1.10;;;;;;;9.30;67.44;96911.06;10483312;28;20040;-65
2023/11/02 07:07:40;;;;;;;1.23;1.00;;;;;;;9.42;67.27;96915.84;10489092;28;20059;-66
2023/11/02 07:12:43;;;;;;;1.90;1.15;;;;;;;9.58;66.87;96918.50;10490877;28;20507;-66
2023/11/02 07:17:45;;;;;;;2.10;1.00;;;;;;;9.74;66.51;96911.72;10483000;28;20056;-66
2023/11/02 07:22:48;;;;;;;2.45;1.23;;;;;;;9.76;67.02;96941.09;10490379;28;20110;-65
2023/11/02 07:27:50;;;;;;;1.55;0.80;;;;;;;10.04;66.37;96992.06;10485731;28;20498;-67
2023/11/02 07:32:53;;;;;;;1.70;0.90;;;;;;;10.20;66.08;96979.03;10483104;28;20040;-67
2023/11/02 07:37:55;;;;;;;3.38;1.13;;;;;;;10.37;65.85;96978.09;10464677;28;20635;-67
2023/11/02 07:42:57;;;;;;;1.00;0.70;;;;;;;10.40;65.83;96904.63;10480778;28;20051;-68
2023/11/02 07:48:01;;;;;;;3.60;1.10;;;;;;;10.52;65.64;96898.09;10481223;28;20054;-67
2023/11/02 07:53:03;;;;;;;1.85;1.10;;;;;;;10.55;65.74;96876.03;10487296;28;20498;-68
2023/11/02 07:58:06;;;;;;;2.00;0.90;;;;;;;10.62;65.28;96906.59;10481030;28;20044;-68
2023/11/02 08:03:08;;;;;;;1.50;1.02;;;;;;;10.67;65.46;96921.75;10483348;28;20036;-68
2023/11/02 08:08:10;;;;;;;3.55;1.40;;;;;;;10.87;65.23;96908.16;10481942;28;20129;-68
2023/11/02 08:13:12;;;;;;;1.38;1.17;;;;;;;10.73;65.03;96880.09;10482937;28;20047;-68
2023/11/02 08:18:15;;;;;;;1.40;0.93;;;;;;;10.75;64.89;96872.06;10480090;28;20044;-68
2023/11/02 08:23:17;;;;;;;1.95;1.00;;;;;;;10.86;64.72;96848.22;10483605;28;20044;-67
2023/11/02 08:28:20;;;;;;;3.95;1.00;;;;;;;11.08;64.33;96827.41;10486153;28;20040;-68
2023/11/02 08:33:23;;;;;;;2.10;1.10;;;;;;;11.12;64.11;96788.66;10485407;28;20045;-67
2023/11/02 08:38:25;;;;;;;3.65;1.08;;;;;;;11.01;64.33;96857.78;10482188;28;20165;-67
2023/11/02 08:43:27;;;;;;;2.95;1.20;;;;;;;11.14;64.27;96836.38;10482143;28;20054;-68
2023/11/02 08:48:29;;;;;;;3.65;1.10;;;;;;;11.30;63.42;96757.81;10461711;28;20059;-68
2023/11/02 08:53:31;;;;;;;1.17;1.05;;;;;;;11.38;63.49;96770.84;10478810;28;20044;-68
2023/11/02 08:58:33;;;;;;;1.33;0.80;;;;;;;11.25;63.33;96820.31;10480597;28;20132;-68
2023/11/02 09:03:38;;;;;;;1.95;0.73;;;;;;;11.59;63.29;96797.22;10490852;28;20044;-68
2023/11/02 09:08:41;;;;;;;1.30;0.88;;;;;;;11.82;62.40;96777.09;10479364;28;20045;-68
2023/11/02 09:13:43;;;;;;;0.68;0.68;;;;;;;11.97;62.25;96785.78;10478985;28;20178;-68
2023/11/02 09:18:45;;;;;;;0.82;0.80;;;;;;;12.10;62.21;96770.31;10478236;28;20155;-68
2023/11/02 09:23:47;;;;;;;1.02;0.80;;;;;;;12.14;61.82;96734.91;10494233;28;20048;-68
2023/11/02 09:28:49;;;;;;;0.75;0.75;;;;;;;11.90;61.40;96735.13;10490394;28;20043;-68
2023/11/02 09:33:51;;;;;;;1.17;1.00;;;;;;;12.15;61.53;96770.56;10485104;28;20052;-68
2023/11/02 09:38:56;;;;;;;1.60;0.85;;;;;;;12.05;61.59;96782.28;10477510;28;20129;-68
2023/11/02 09:43:59;;;;;;;0.30;0.30;;;;;;;12.00;61.43;96793.31;10484019;28;20052;-68
2023/11/02 09:49:01;;;;;;;1.23;0.90;;;;;;;11.97;61.47;96743.91;10484820;28;20052;-68
2023/11/02 09:54:04;;;;;;;0.95;0.60;;;;;;;12.00;61.64;96771.53;10490569;28;20055;-68
2023/11/02 09:59:08;;;;;;;3.30;0.90;;;;;;;12.18;61.04;96768.59;10468626;28;20048;-68
2023/11/02 10:04:10;;;;;;;0.63;0.55;;;;;;;12.23;61.57;96753.97;10487352;28;20040;-67
2023/11/02 10:09:13;;;;;;;3.40;0.77;;;;;;;12.59;60.99;96747.06;10458979;28;20504;-68
2023/11/02 10:14:15;;;;;;;0.50;0.50;;;;;;;12.65;59.79;96738.47;10480246;28;20054;-67
2023/11/02 10:19:19;;;;;;;0.55;0.55;;;;;;;12.76;60.35;96797.53;10480848;28;20060;-68
2023/11/02 10:24:30;;;;;;;0.70;0.70;;;;;;;12.82;59.28;96775.81;10480741;28;20504;-69
2023/11/02 10:29:34;;;;;;;1.10;0.77;;;;;;;12.80;59.96;96749.75;10484608;28;20102;-68
2023/11/02 10:34:37;;;;;;;0.80;0.77;;;;;;;12.56;60.90;96736.94;10485701;28;20043;-68
2023/11/02 10:39:40;;;;;;;0.80;0.80;;;;;;;12.80;60.48;96733.22;10477136;28;20133;-69
2023/11/02 10:44:42;;;;;;;1.08;0.55;;;;;;;12.89;60.14;96740.00;10476550;28;20550;-68
2023/11/02 10:49:47;;;;;;;0.93;0.80;;;;;;;12.98;59.93;96705.59;10475782;28;20127;-68
2023/11/02 10:54:49;;;;;;;1.80;1.00;;;;;;;12.95;59.71;96711.22;10476650;28;20572;-68
2023/11/02 10:59:53;;;;;;;3.63;1.50;;;;;;;12.92;59.86;96708.16;10486537;28;20048;-68
2023/11/02 11:04:57;;;;;;;3.67;1.50;;;;;;;13.19;59.27;96714.53;10478628;28;20045;-69
2023/11/02 11:10:01;;;;;;;3.80;1.55;;;;;;;13.19;59.45;96717.94;10475433;28;20044;-68
2023/11/02 11:15:04;;;;;;;3.10;1.60;;;;;;;13.12;59.43;96700.50;10480501;28;20388;-69
2023/11/02 11:20:07;;;;;;;2.55;1.38;;;;;;;13.36;58.85;96718.50;10479989;28;20411;-69
2023/11/02 11:25:09;;;;;;;1.02;0.60;;;;;;;13.31;58.77;96715.66;10487574;28;20420;-68
2023/11/02 11:30:20;;;;;;;2.25;1.00;;;;;;;13.22;57.44;96740.38;10487226;28;20040;-68
2023/11/02 11:35:23;;;;;;;2.78;0.90;;;;;;;13.08;58.12;96726.31;10485713;28;20032;-69
2023/11/02 11:40:26;;;;;;;1.20;0.65;;;;;;;13.24;58.02;96710.34;10485437;28;20110;-67
2023/11/02 11:45:36;;;;;;;2.78;1.38;;;;;;;13.16;57.49;96702.56;10492812;28;20125;-68
2023/11/02 11:50:44;;;;;;;2.78;1.05;;;;;;;13.02;57.36;96706.06;10482669;28;20090;-68
2023/11/02 11:55:48;;;;;;;1.70;0.77;;;;;;;13.09;57.47;96708.75;10480843;28;20044;-67
2023/11/02 12:00:53;;;;;;;3.00;0.75;;;;;;;13.22;56.93;96690.50;10480939;28;20419;-68
2023/11/02 12:05:57;;;;;;;1.55;0.70;;;;;;;13.15;57.30;96702.78;10461874;28;20094;-68
2023/11/02 12:11:00;;;;;;;0.75;0.50;;;;;;;13.09;57.21;96690.41;10484225;28;20102;-68
2023/11/02 12:16:03;;;;;;;0.93;0.68;;;;;;;13.36;56.27;96697.53;10483669;28;20141;-68
2023/11/02 12:21:18;;;;;;;3.72;0.68;;;;;;;13.38;56.28;96698.16;10487642;28;20041;-67
2023/11/02 12:26:22;;;;;;;1.50;0.73;;;;;;;13.37;56.58;96704.41;10482464;28;20053;-67
2023/11/02 12:31:34;;;;;;;1.30;0.55;;;;;;;13.29;55.66;96700.06;10467543;28;21075;-67
2023/11/02 12:36:41;;;;;;;0.85;0.70;;;;;;;13.30;55.85;96691.22;10474406;28;20202;-66
2023/11/02 12:41:47;;;;;;;1.85;0.73;;;;;;;13.17;56.45;96698.16;10473485;28;20056;-67
2023/11/02 12:46:53;;;;;;;1.98;0.65;;;;;;;13.15;56.28;96689.66;10478629;28;20501;-66
2023/11/02 12:52:09;;;;;;;2.70;0.80;;;;;;;13.03;55.24;96652.56;10480211;28;20052;-67
2023/11/02 12:57:11;;;;;;;2.45;0.40;;;;;;;13.09;55.79;96640.53;10485738;28;20052;-67
2023/11/02 13:02:31;;;;;;;1.40;0.63;;;;;;;13.07;55.34;96626.81;10479772;28;20044;-68
2023/11/02 13:07:34;;;;;;;1.63;0.60;;;;;;;13.00;55.84;96633.78;10493428;27;20057;-67
2023/11/02 13:12:43;;;;;;;2.30;0.55;;;;;;;13.17;55.49;96650.91;10483280;28;20048;-67
2023/11/02 13:17:46;;;;;;;0.65;0.50;;;;;;;13.33;54.59;96619.97;10441708;28;20053;-68
2023/11/02 13:22:50;;;;;;;2.67;0.80;;;;;;;13.39;55.11;96653.31;10435563;28;20048;-68
2023/11/02 13:27:58;;;;;;;3.15;0.90;;;;;;;13.33;55.11;96648.03;10437368;28;20052;-67
2023/11/02 13:33:03;;;;;;;1.30;0.60;;;;;;;13.30;54.74;96645.78;10434382;28;20059;-68
2023/11/02 13:42:48;;;;;;;1.30;0.57;;;;;;;13.03;55.44;96646.53;10470323;28;20264;-67
2023/11/02 13:47:50;;;;;;;1.13;0.68;;;;;;;13.43;54.37;96653.81;10456648;28;20127;-68
2023/11/02 13:52:53;;;;;;;0.88;0.70;;;;;;;13.56;54.48;96643.41;10451807;28;20044;-69
2023/11/02 13:57:55;;;;;;;2.83;0.90;;;;;;;13.47;54.13;96640.13;10460727;28;20047;-67
2023/11/02 14:02:58;;;;;;;1.65;0.75;;;;;;;13.76;53.77;96607.59;10464386;28;20566;-67
2023/11/02 14:08:02;;;;;;;6.10;1.35;;;;;;;13.95;52.53;96633.19;10461361;28;20059;-67
2023/11/02 14:13:04;;;;;;;2.97;1.08;;;;;;;13.91;53.04;96636.41;10462566;28;20187;-67
2023/11/02 14:18:07;;;;;;;2.67;1.10;;;;;;;13.85;53.17;96640.63;10444530;28;20052;-67
2023/11/02 14:23:11;;;;;;;3.88;1.65;;;;;;;13.92;53.27;96633.59;10461290;28;20080;-67
2023/11/02 14:28:13;;;;;;;5.65;1.85;;;;;;;14.08;52.50;96627.22;10461266;28;20059;-67
2023/11/02 14:38:05;;;;;;;4.50;1.45;;;;;;;13.91;52.33;96610.13;10544034;27;20128;-66
2023/11/02 14:43:11;;;;;;;2.80;0.70;;;;;;;13.87;52.27;96617.59;10539186;28;20047;-66
2023/11/02 14:48:14;;;;;;;1.35;0.82;;;;;;;13.77;51.98;96619.75;10539073;28;21626;-67
2023/11/02 14:53:16;;;;;;;1.75;0.90;;;;;;;13.85;51.94;96624.03;10542635;28;20520;-67
2023/11/02 14:58:18;;;;;;;2.33;0.63;;;;;;;13.67;52.05;96630.59;10539467;28;20048;-67
2023/11/02 15:03:20;;;;;;;3.05;0.95;;;;;;;13.68;52.07;96605.13;10543260;28;20623;-67
2023/11/02 15:08:22;;;;;;;5.15;1.65;;;;;;;13.64;51.98;96601.25;10543486;28;20032;-67
2023/11/02 15:13:24;;;;;;;3.70;1.00;;;;;;;13.68;52.01;96599.88;10542483;28;20507;-66
2023/11/02 15:18:26;;;;;;;3.63;1.17;;;;;;;13.57;52.12;96598.59;10543080;28;20044;-67
2023/11/02 15:23:29;;;;;;;3.78;1.10;;;;;;;13.43;52.16;96604.72;10543487;28;20054;-67
2023/11/02 15:28:32;;;;;;;4.78;1.25;;;;;;;13.27;52.45;96617.31;10542285;28;20101;-67
2023/11/02 15:33:34;;;;;;;3.20;0.90;;;;;;;13.26;52.26;96621.72;10541617;28;20140;-67
2023/11/02 15:38:40;;;;;;;3.17;1.77;;;;;;;13.17;52.01;96601.84;10540822;28;20499;-67
2023/11/02 15:43:42;;;;;;;2.53;1.00;;;;;;;12.99;52.55;96601.47;10542599;28;20402;-66
2023/11/02 15:48:44;;;;;;;3.13;1.08;;;;;;;12.88;52.97;96597.53;10517621;28;20407;-66
2023/11/02 15:53:50;;;;;;;2.65;1.25;;;;;;;12.72;53.01;96612.72;10510209;28;20047;-66
2023/11/02 15:58:52;;;;;;;3.40;0.93;;;;;;;12.63;52.95;96598.91;10481346;28;20060;-67
2023/11/02 16:03:55;;;;;;;1.67;0.75;;;;;;;12.57;53.57;96599.66;10515045;28;20765;-67
2023/11/02 16:08:57;;;;;;;3.03;0.90;;;;;;;12.47;53.64;96599.13;10514963;28;20047;-67
2023/11/02 16:14:03;;;;;;;3.50;1.00;;;;;;;12.38;54.03;96599.41;10515300;28;20062;-67
2023/11/02 16:19:05;;;;;;;1.38;0.93;;;;;;;12.33;54.24;96604.38;10516149;28;20044;-64
2023/11/02 16:24:12;;;;;;;3.80;1.00;;;;;;;12.26;54.34;96613.94;10516561;28;20070;-64
2023/11/02 16:29:14;;;;;;;9.13;1.23;;;;;;;12.13;54.48;96610.16;10513559;28;20606;-64
2023/11/02 16:34:17;;;;;;;1.63;1.08;;;;;;;11.98;54.85;96632.09;10507939;28;20237;-64
2023/11/02 16:39:36;;;;;;;2.33;1.15;;;;;;;12.02;54.79;96641.22;10512819;28;20044;-64
2023/11/02 16:44:38;;;;;;;3.08;1.05;;;;;;;11.95;54.59;96645.53;10510257;28;20548;-64
2023/11/02 16:49:41;;;;;;;5.00;1.85;;;;;;;11.99;54.69;96670.38;10511741;28;20047;-64
2023/11/02 16:54:43;;;;;;;1.40;0.77;;;;;;;11.80;55.15;96689.25;10510052;28;20056;-64
2023/11/02 16:59:46;;;;;;;1.75;1.10;;;;;;;11.84;55.17;96700.97;10503155;28;20054;-64
2023/11/02 17:04:48;;;;;;;2.03;0.90;;;;;;;11.63;55.55;96722.59;10502843;28;20500;-64
2023/11/02 17:09:50;;;;;;;2.58;1.23;;;;;;;11.59;55.62;96723.09;10502313;28;20055;-64
2023/11/02 17:14:52;;;;;;;1.52;0.75;;;;;;;11.45;55.91;96721.25;10501695;28;20052;-64
2023/11/02 17:19:54;;;;;;;1.85;0.98;;;;;;;11.36;55.83;96717.09;10511507;28;20503;-65
2023/11/02 17:24:56;;;;;;;2.38;0.80;;;;;;;11.24;56.05;96696.53;10506681;28;20044;-64
2023/11/02 17:29:58;;;;;;;4.72;1.17;;;;;;;11.16;56.40;96693.97;10501835;28;20162;-65
2023/11/02 17:35:00;;;;;;;1.73;0.90;;;;;;;11.13;56.36;96685.69;10508195;28;20048;-65
2023/11/02 17:40:05;;;;;;;1.52;0.70;;;;;;;11.05;56.58;96676.06;10505448;28;20139;-64
2023/11/02 17:45:10;;;;;;;4.68;1.17;;;;;;;11.08;56.70;96683.56;10512683;28;20507;-64
2023/11/02 17:50:12;;;;;;;1.60;0.80;;;;;;;11.10;56.74;96678.16;10504957;28;20054;-65
2023/11/02 17:55:15;;;;;;;0.77;0.70;;;;;;;11.06;56.90;96685.56;10509222;28;20050;-65
2023/11/02 18:00:17;;;;;;;4.05;0.98;;;;;;;11.07;56.67;96671.47;10504101;28;20046;-64
2023/11/02 18:05:23;;;;;;;1.48;0.88;;;;;;;11.13;56.63;96689.09;10507436;28;20130;-65
2023/11/02 18:10:30;;;;;;;2.17;0.60;;;;;;;11.16;56.23;96696.59;10503836;28;20125;-64
2023/11/02 18:15:33;;;;;;;2.38;1.40;;;;;;;11.23;56.30;96684.44;10509911;28;20138;-64
2023/11/02 18:20:36;;;;;;;1.98;1.20;;;;;;;11.26;56.11;96681.50;10503955;28;20414;-65
2023/11/02 18:25:40;;;;;;;4.75;1.00;;;;;;;11.37;56.07;96697.75;10508326;28;20068;-64
2023/11/02 18:30:43;;;;;;;1.75;1.20;;;;;;;11.44;55.88;96668.09;10508981;28;20124;-65
2023/11/02 18:35:45;;;;;;;0.77;0.70;;;;;;;11.47;55.79;96674.78;10511613;28;20059;-64
2023/11/02 18:40:47;;;;;;;2.55;0.93;;;;;;;11.43;55.61;96660.44;10508446;28;20047;-64
2023/11/02 18:45:51;;;;;;;1.55;0.98;;;;;;;11.52;55.40;96659.38;10505768;28;20048;-64
2023/11/02 18:50:53;;;;;;;1.55;0.70;;;;;;;11.57;54.44;96657.03;10509095;28;20036;-65
2023/11/02 18:55:55;;;;;;;0.70;0.70;;;;;;;11.54;55.19;96667.88;10502007;28;20056;-64
2023/11/02 19:00:57;;;;;;;5.18;1.13;;;;;;;11.59;55.10;96674.19;10507819;28;20050;-64
2023/11/02 19:06:01;;;;;;;1.65;0.95;;;;;;;11.41;55.39;96676.31;10507959;28;20512;-64
2023/11/02 19:11:04;;;;;;;2.97;0.80;;;;;;;11.34;55.26;96671.97;10509458;28;20130;-65
2023/11/02 19:16:07;;;;;;;0.70;0.70;;;;;;;11.14;55.16;96667.19;10509089;28;20515;-64
2023/11/02 19:21:10;;;;;;;4.55;1.48;;;;;;;10.99;55.56;96671.50;10511917;28;20046;-65
2023/11/02 19:26:15;;;;;;;1.30;0.93;;;;;;;10.98;55.21;96672.50;10515655;28;20051;-64
2023/11/02 19:31:17;;;;;;;3.90;1.58;;;;;;;10.84;55.26;96675.84;10518363;28;20051;-65
2023/11/02 19:36:19;;;;;;;5.40;1.48;;;;;;;10.68;55.87;96675.94;10517480;28;20084;-64
2023/11/02 19:41:21;;;;;;;0.75;0.70;;;;;;;10.63;56.07;96683.47;10517306;28;20058;-65
2023/11/02 19:46:23;;;;;;;1.65;0.95;;;;;;;10.53;55.84;96708.97;10514456;28;20056;-64
2023/11/02 19:51:26;;;;;;;2.22;1.13;;;;;;;10.54;56.03;96731.53;10517417;28;20040;-64
2023/11/02 19:56:28;;;;;;;1.17;0.70;;;;;;;10.41;56.13;96732.06;10511772;28;20052;-65
2023/11/02 20:01:31;;;;;;;3.05;1.20;;;;;;;10.35;56.16;96743.19;10512202;28;20076;-64
2023/11/02 20:06:34;;;;;;;8.65;1.83;;;;;;;10.23;56.15;96741.06;10516415;28;20056;-65
2023/11/02 20:11:37;;;;;;;2.45;1.00;;;;;;;10.25;56.12;96755.59;10510646;28;20054;-64
2023/11/02 20:16:38;;;;;;;6.50;1.48;;;;;;;10.28;56.25;96762.28;10512043;28;20423;-64
2023/11/02 20:21:40;;;;;;;1.90;1.25;;;;;;;10.11;56.42;96769.34;10494257;28;20059;-64
2023/11/02 20:26:42;;;;;;;2.15;1.40;;;;;;;9.96;56.23;96770.97;10506828;28;20068;-63
2023/11/02 20:31:44;;;;;;;3.40;1.42;;;;;;;9.94;56.17;96779.94;10502957;28;20043;-64
2023/11/02 20:36:46;;;;;;;3.85;1.65;;;;;;;9.90;55.93;96789.09;10501063;28;20054;-64
2023/11/02 20:41:48;;;;;;;4.07;1.90;;;;;;;9.94;56.16;96785.16;10515617;28;20113;-63
2023/11/02 20:46:50;;;;;;;2.33;0.95;;;;;;;9.87;56.05;96799.88;10517398;28;20507;-63
2023/11/02 20:51:52;;;;;;;3.50;1.55;;;;;;;9.71;56.08;96813.69;10517152;28;20066;-63
2023/11/02 20:56:54;;;;;;;2.78;1.30;;;;;;;9.75;56.11;96819.44;10513872;28;20063;-64
2023/11/02 21:01:59;;;;;;;3.40;1.45;;;;;;;9.70;55.67;96825.13;10512739;28;20043;-64
2023/11/02 21:07:01;;;;;;;5.10;2.17;;;;;;;9.71;55.89;96810.31;10512369;28;20047;-64
2023/11/02 21:12:03;;;;;;;4.32;2.50;;;;;;;9.70;55.78;96804.25;10510397;28;20048;-64
2023/11/02 21:17:05;;;;;;;4.15;1.52;;;;;;;9.70;55.77;96800.81;10509345;28;20051;-64
2023/11/02 21:22:08;;;;;;;2.08;1.08;;;;;;;9.60;55.68;96796.56;10511023;28;20695;-64
2023/11/02 21:27:13;;;;;;;4.68;1.83;;;;;;;9.75;55.86;96790.72;10510995;28;20064;-64
2023/11/02 21:32:16;;;;;;;3.70;1.27;;;;;;;9.73;55.40;96787.47;10512764;28;20051;-64
2023/11/02 21:37:18;;;;;;;4.32;1.23;;;;;;;9.88;55.22;96799.69;10511749;28;20078;-63
2023/11/02 21:42:20;;;;;;;2.00;1.17;;;;;;;9.97;54.93;96783.03;10508701;28;20071;-63
2023/11/02 21:47:22;;;;;;;3.28;1.80;;;;;;;9.97;54.78;96779.63;10510510;28;20040;-64
2023/11/02 21:52:24;;;;;;;3.88;1.60;;;;;;;9.80;55.21;96762.34;10511412;28;20086;-63
2023/11/02 21:57:26;;;;;;;4.75;2.15;;;;;;;9.68;55.31;96780.13;10509177;28;20531;-64
2023/11/02 22:02:28;;;;;;;4.20;2.22;;;;;;;9.60;55.65;96780.91;10509768;28;20036;-64
2023/11/02 22:07:30;;;;;;;7.25;2.22;;;;;;;9.53;55.72;96750.38;10511796;28;20093;-64
2023/11/02 22:12:32;;;;;;;5.88;1.65;;;;;;;9.44;55.62;96741.72;10499832;28;20054;-64
2023/11/02 22:17:34;;;;;;;3.45;1.50;;;;;;;9.43;55.79;96747.94;10511598;28;20147;-64
2023/11/02 22:22:36;;;;;;;3.55;1.60;;;;;;;9.42;55.73;96755.94;10509731;28;20040;-63
2023/11/02 22:27:38;;;;;;;4.53;1.65;;;;;;;9.42;55.77;96754.13;10545180;27;20047;-64
2023/11/02 22:32:41;;;;;;;2.38;1.40;;;;;;;9.45;55.95;96763.41;10504989;28;20401;-64
2023/11/02 22:37:43;;;;;;;4.95;1.80;;;;;;;9.35;55.69;96755.75;10505666;28;20172;-63
2023/11/02 22:42:45;;;;;;;1.73;1.05;;;;;;;9.55;55.71;96759.69;10512618;28;20529;-63
2023/11/02 22:47:47;;;;;;;2.15;1.33;;;;;;;9.63;55.55;96757.09;10510818;28;20132;-64
2023/11/02 22:52:51;;;;;;;5.50;1.40;;;;;;;9.62;55.24;96750.25;10494985;28;20064;-64
2023/11/02 22:57:53;;;;;;;2.78;0.85;;;;;;;9.67;55.43;96756.81;10516746;28;20047;-63
2023/11/02 23:02:55;;;;;;;2.42;1.15;;;;;;;9.65;55.21;96749.91;10516749;28;20452;-64
2023/11/02 23:07:57;;;;;;;1.13;0.77;;;;;;;9.62;55.05;96760.69;10518512;28;20040;-63
2023/11/02 23:12:59;;;;;;;3.13;1.38;;;;;;;9.64;55.04;96768.34;10517627;28;20044;-64
2023/11/02 23:18:02;;;;;;;4.30;1.30;;;;;;;9.77;55.01;96767.91;10519110;28;20116;-64
2023/11/02 23:23:07;;;;;;;2.13;1.00;;;;;;;9.88;54.58;96754.50;10520551;28;20058;-64
2023/11/02 23:28:09;;;;;;;3.53;1.00;;;;;;;9.95;54.36;96758.88;10516945;28;20047;-64
2023/11/02 23:33:11;;;;;;;3.53;1.30;;;;;;;9.94;54.28;96752.06;10519065;28;20120;-63
2023/11/02 23:38:13;;;;;;;2.85;1.67;;;;;;;9.94;54.27;96746.00;10518014;28;20040;-64
2023/11/02 23:43:16;;;;;;;5.68;1.13;;;;;;;9.85;54.52;96749.63;10512636;28;20550;-64
2023/11/02 23:48:18;;;;;;;2.08;1.08;;;;;;;9.70;54.46;96764.28;10516973;28;20101;-64